sensor_id;sensor_type;location;lat;lon;timestamp;pressure;altitude;pressure_sealevel;temperature;humidity
22743;BME280;11538;48.884;8.696;2024-03-29T00:00:52;96984.91;;;8.41;61.35
22743;BME280;11538;48.884;8.696;2024-03-29T00:03:18;96974.13;;;8.41;61.39
22743;BME280;11538;48.884;8.696;2024-03-29T00:05:44;96984.91;;;8.41;61.09
22743;BME280;11538;48.884;8.696;2024-03-29T00:08:10;96985.84;;;8.45;60.99
22743;BME280;11538;48.884;8.696;2024-03-29T00:10:36;96984.72;;;8.46;60.81
22743;BME280;11538;48.884;8.696;2024-03-29T00:13:02;96975.50;;;8.47;60.81
22743;BME280;11538;48.884;8.696;2024-03-29T00:15:28;96978.88;;;8.44;60.64
22743;BME280;11538;48.884;8.696;2024-03-29T00:17:54;96978.41;;;8.42;61.15
22743;BME280;11538;48.884;8.696;2024-03-29T00:20:20;96951.50;;;8.45;60.97
22743;BME280;11538;48.884;8.696;2024-03-29T00:22:47;96953.88;;;8.47;60.45
22743;BME280;11538;48.884;8.696;2024-03-29T00:25:13;96939.25;;;8.48;60.90
22743;BME280;11538;48.884;8.696;2024-03-29T00:27:38;96936.28;;;8.41;61.12
22743;BME280;11538;48.884;8.696;2024-03-29T00:30:05;96938.28;;;8.31;61.58
22743;BME280;11538;48.884;8.696;2024-03-29T00:32:31;96921.16;;;8.27;61.96
22743;BME280;11538;48.884;8.696;2024-03-29T00:34:57;96923.97;;;8.31;62.14
22743;BME280;11538;48.884;8.696;2024-03-29T00:37:24;96924.78;;;8.31;61.79
22743;BME280;11538;48.884;8.696;2024-03-29T00:39:50;96919.84;;;8.33;61.31
22743;BME280;11538;48.884;8.696;2024-03-29T00:42:16;96923.97;;;8.31;61.88
22743;BME280;11538;48.884;8.696;2024-03-29T00:44:43;96904.41;;;8.34;61.75
22743;BME280;11538;48.884;8.696;2024-03-29T00:47:09;96904.75;;;8.32;61.78
22743;BME280;11538;48.884;8.696;2024-03-29T00:49:35;96894.72;;;8.33;61.82
22743;BME280;11538;48.884;8.696;2024-03-29T00:52:03;96878.97;;;8.35;62.08
22743;BME280;11538;48.884;8.696;2024-03-29T00:54:29;96889.31;;;8.33;62.14
22743;BME280;11538;48.884;8.696;2024-03-29T00:56:55;96901.69;;;8.34;62.36
22743;BME280;11538;48.884;8.696;2024-03-29T00:59:22;96905.66;;;8.37;62.20
22743;BME280;11538;48.884;8.696;2024-03-29T01:01:49;96912.03;;;8.32;62.57
22743;BME280;11538;48.884;8.696;2024-03-29T01:04:15;96899.00;;;8.34;62.38
22743;BME280;11538;48.884;8.696;2024-03-29T01:06:41;96896.63;;;8.32;62.43
22743;BME280;11538;48.884;8.696;2024-03-29T01:09:07;96899.34;;;8.32;62.64
22743;BME280;11538;48.884;8.696;2024-03-29T01:11:40;96898.00;;;8.39;62.41
22743;BME280;11538;48.884;8.696;2024-03-29T01:14:06;96879.69;;;8.44;62.28
22743;BME280;11538;48.884;8.696;2024-03-29T01:16:32;96892.72;;;8.42;62.56
22743;BME280;11538;48.884;8.696;2024-03-29T01:18:59;96894.66;;;8.42;63.06
22743;BME280;11538;48.884;8.696;2024-03-29T01:21:28;96895.44;;;8.42;62.42
22743;BME280;11538;48.884;8.696;2024-03-29T01:23:54;96896.22;;;8.43;62.88
22743;BME280;11538;48.884;8.696;2024-03-29T01:26:20;96873.34;;;8.40;62.91
22743;BME280;11538;48.884;8.696;2024-03-29T01:28:46;96858.28;;;8.39;63.20
22743;BME280;11538;48.884;8.696;2024-03-29T01:31:12;96856.59;;;8.34;63.54
22743;BME280;11538;48.884;8.696;2024-03-29T01:33:38;96870.75;;;8.31;63.85
22743;BME280;11538;48.884;8.696;2024-03-29T01:36:07;96861.28;;;8.25;64.01
22743;BME280;11538;48.884;8.696;2024-03-29T01:38:34;96860.94;;;8.27;64.07
22743;BME280;11538;48.884;8.696;2024-03-29T01:41:00;96877.13;;;8.27;64.17
22743;BME280;11538;48.884;8.696;2024-03-29T01:43:26;96876.56;;;8.21;64.67
22743;BME280;11538;48.884;8.696;2024-03-29T01:45:56;96871.16;;;8.21;64.44
22743;BME280;11538;48.884;8.696;2024-03-29T01:48:26;96861.47;;;8.20;64.69
22743;BME280;11538;48.884;8.696;2024-03-29T01:50:53;96862.41;;;8.24;64.65
22743;BME280;11538;48.884;8.696;2024-03-29T01:53:20;96865.75;;;8.21;64.73
22743;BME280;11538;48.884;8.696;2024-03-29T01:55:46;96873.50;;;8.23;64.84
22743;BME280;11538;48.884;8.696;2024-03-29T01:58:13;96851.47;;;8.20;64.82
22743;BME280;11538;48.884;8.696;2024-03-29T02:00:50;96852.13;;;8.17;64.67
22743;BME280;11538;48.884;8.696;2024-03-29T02:03:16;96841.47;;;8.21;64.74
22743;BME280;11538;48.884;8.696;2024-03-29T02:05:47;96862.25;;;8.20;64.74
22743;BME280;11538;48.884;8.696;2024-03-29T02:08:14;96852.91;;;8.18;65.21
22743;BME280;11538;48.884;8.696;2024-03-29T02:10:41;96869.59;;;8.20;65.02
22743;BME280;11538;48.884;8.696;2024-03-29T02:13:08;96861.47;;;8.20;65.02
22743;BME280;11538;48.884;8.696;2024-03-29T02:15:33;96852.38;;;8.25;64.96
22743;BME280;11538;48.884;8.696;2024-03-29T02:17:59;96843.94;;;8.26;64.82
22743;BME280;11538;48.884;8.696;2024-03-29T02:20:25;96851.84;;;8.31;64.94
22743;BME280;11538;48.884;8.696;2024-03-29T02:22:58;96860.41;;;8.33;64.79
22743;BME280;11538;48.884;8.696;2024-03-29T02:25:25;96865.66;;;8.30;64.66
22743;BME280;11538;48.884;8.696;2024-03-29T02:27:51;96871.41;;;8.28;64.86
22743;BME280;11538;48.884;8.696;2024-03-29T02:30:17;96877.47;;;8.25;65.14
22743;BME280;11538;48.884;8.696;2024-03-29T02:32:44;96862.50;;;8.28;65.13
22743;BME280;11538;48.884;8.696;2024-03-29T02:35:09;96861.75;;;8.27;65.43
22743;BME280;11538;48.884;8.696;2024-03-29T02:37:36;96860.38;;;8.21;65.44
22743;BME280;11538;48.884;8.696;2024-03-29T02:40:05;96861.81;;;8.18;65.81
22743;BME280;11538;48.884;8.696;2024-03-29T02:42:32;96870.09;;;8.13;66.17
22743;BME280;11538;48.884;8.696;2024-03-29T02:44:58;96857.97;;;8.19;65.91
22743;BME280;11538;48.884;8.696;2024-03-29T02:47:24;96873.06;;;8.20;66.15
22743;BME280;11538;48.884;8.696;2024-03-29T02:49:50;96874.53;;;8.18;66.31
22743;BME280;11538;48.884;8.696;2024-03-29T02:52:16;96863.25;;;8.16;66.10
22743;BME280;11538;48.884;8.696;2024-03-29T02:54:42;96865.97;;;8.16;66.33
22743;BME280;11538;48.884;8.696;2024-03-29T02:57:08;96865.81;;;8.12;66.26
22743;BME280;11538;48.884;8.696;2024-03-29T02:59:34;96850.75;;;8.11;66.44
22743;BME280;11538;48.884;8.696;2024-03-29T03:02:00;96852.78;;;8.14;66.19
22743;BME280;11538;48.884;8.696;2024-03-29T03:04:26;96861.81;;;8.18;66.46
22743;BME280;11538;48.884;8.696;2024-03-29T03:06:51;96881.75;;;8.26;66.60
22743;BME280;11538;48.884;8.696;2024-03-29T03:09:17;96871.06;;;8.30;65.60
22743;BME280;11538;48.884;8.696;2024-03-29T03:12:02;96867.38;;;8.34;65.27
22743;BME280;11538;48.884;8.696;2024-03-29T03:14:28;96873.81;;;8.42;65.23
22743;BME280;11538;48.884;8.696;2024-03-29T03:16:54;96883.00;;;8.50;65.98
22743;BME280;11538;48.884;8.696;2024-03-29T03:19:20;96882.78;;;8.55;65.95
22743;BME280;11538;48.884;8.696;2024-03-29T03:21:46;96917.72;;;8.60;65.63
22743;BME280;11538;48.884;8.696;2024-03-29T03:24:11;96915.25;;;8.68;65.87
22743;BME280;11538;48.884;8.696;2024-03-29T03:26:38;96893.09;;;8.74;65.20
22743;BME280;11538;48.884;8.696;2024-03-29T03:29:04;96893.66;;;8.80;68.13
22743;BME280;11538;48.884;8.696;2024-03-29T03:31:30;96885.34;;;8.85;66.71
22743;BME280;11538;48.884;8.696;2024-03-29T03:33:56;96886.03;;;8.95;67.01
22743;BME280;11538;48.884;8.696;2024-03-29T03:36:22;96857.66;;;9.01;68.31
22743;BME280;11538;48.884;8.696;2024-03-29T03:38:48;96857.34;;;9.02;67.02
22743;BME280;11538;48.884;8.696;2024-03-29T03:41:14;96862.97;;;9.10;67.73
22743;BME280;11538;48.884;8.696;2024-03-29T03:43:40;96840.66;;;9.13;66.71
22743;BME280;11538;48.884;8.696;2024-03-29T03:46:06;96839.84;;;9.12;66.72
22743;BME280;11538;48.884;8.696;2024-03-29T03:48:32;96832.63;;;9.16;64.85
22743;BME280;11538;48.884;8.696;2024-03-29T03:50:58;96831.97;;;9.19;65.91
22743;BME280;11538;48.884;8.696;2024-03-29T03:53:24;96839.19;;;9.15;66.99
22743;BME280;11538;48.884;8.696;2024-03-29T03:55:49;96826.78;;;9.14;70.03
22743;BME280;11538;48.884;8.696;2024-03-29T03:58:15;96829.72;;;9.09;69.91
22743;BME280;11538;48.884;8.696;2024-03-29T04:00:41;96832.41;;;9.09;68.30
22743;BME280;11538;48.884;8.696;2024-03-29T04:03:07;96832.41;;;9.09;67.19
22743;BME280;11538;48.884;8.696;2024-03-29T04:05:36;96815.19;;;9.14;67.66
22743;BME280;11538;48.884;8.696;2024-03-29T04:08:03;96825.66;;;9.15;68.77
22743;BME280;11538;48.884;8.696;2024-03-29T04:10:29;96828.34;;;9.15;72.93
22743;BME280;11538;48.884;8.696;2024-03-29T04:12:55;96830.84;;;9.08;69.05
22743;BME280;11538;48.884;8.696;2024-03-29T04:15:21;96836.81;;;9.01;70.41
22743;BME280;11538;48.884;8.696;2024-03-29T04:17:47;96839.16;;;8.90;73.04
22743;BME280;11538;48.884;8.696;2024-03-29T04:20:13;96834.34;;;8.84;74.15
22743;BME280;11538;48.884;8.696;2024-03-29T04:22:38;96855.81;;;8.80;76.42
22743;BME280;11538;48.884;8.696;2024-03-29T04:25:04;96871.47;;;8.74;75.47
22743;BME280;11538;48.884;8.696;2024-03-29T04:27:30;96892.66;;;8.72;74.93
22743;BME280;11538;48.884;8.696;2024-03-29T04:29:56;96908.72;;;8.69;75.50
22743;BME280;11538;48.884;8.696;2024-03-29T04:32:22;96890.03;;;8.63;76.04
22743;BME280;11538;48.884;8.696;2024-03-29T04:34:49;96885.16;;;8.57;77.58
22743;BME280;11538;48.884;8.696;2024-03-29T04:37:15;96869.59;;;8.54;79.62
22743;BME280;11538;48.884;8.696;2024-03-29T04:39:42;96861.94;;;8.56;76.59
22743;BME280;11538;48.884;8.696;2024-03-29T04:42:09;96862.53;;;8.61;77.38
22743;BME280;11538;48.884;8.696;2024-03-29T04:44:34;96832.16;;;8.65;78.20
22743;BME280;11538;48.884;8.696;2024-03-29T04:47:00;96825.63;;;8.66;78.82
22743;BME280;11538;48.884;8.696;2024-03-29T04:49:27;96813.81;;;8.70;79.46
22743;BME280;11538;48.884;8.696;2024-03-29T04:52:01;96811.44;;;8.69;80.92
22743;BME280;11538;48.884;8.696;2024-03-29T04:54:27;96821.78;;;8.67;80.36
22743;BME280;11538;48.884;8.696;2024-03-29T04:56:53;96815.25;;;8.68;77.65
22743;BME280;11538;48.884;8.696;2024-03-29T04:59:19;96810.66;;;8.68;77.40
22743;BME280;11538;48.884;8.696;2024-03-29T05:01:47;96807.59;;;8.70;77.01
22743;BME280;11538;48.884;8.696;2024-03-29T05:04:17;96820.00;;;8.71;77.91
22743;BME280;11538;48.884;8.696;2024-03-29T05:06:44;96808.88;;;8.72;78.20
22743;BME280;11538;48.884;8.696;2024-03-29T05:09:13;96830.03;;;8.70;76.08
22743;BME280;11538;48.884;8.696;2024-03-29T05:11:39;96819.31;;;8.74;76.57
22743;BME280;11538;48.884;8.696;2024-03-29T05:14:05;96840.19;;;8.73;77.71
22743;BME280;11538;48.884;8.696;2024-03-29T05:16:31;96835.69;;;8.77;75.16
22743;BME280;11538;48.884;8.696;2024-03-29T05:18:57;96829.91;;;8.79;72.98
22743;BME280;11538;48.884;8.696;2024-03-29T05:21:23;96822.25;;;8.81;72.30
22743;BME280;11538;48.884;8.696;2024-03-29T05:23:49;96828.94;;;8.84;71.46
22743;BME280;11538;48.884;8.696;2024-03-29T05:26:15;96821.38;;;8.89;69.32
22743;BME280;11538;48.884;8.696;2024-03-29T05:28:41;96815.75;;;8.95;67.98
22743;BME280;11538;48.884;8.696;2024-03-29T05:31:13;96831.88;;;9.03;64.54
22743;BME280;11538;48.884;8.696;2024-03-29T05:33:41;96820.59;;;9.14;65.46
22743;BME280;11538;48.884;8.696;2024-03-29T05:36:07;96824.66;;;9.20;65.60
22743;BME280;11538;48.884;8.696;2024-03-29T05:38:37;96829.03;;;9.25;61.56
22743;BME280;11538;48.884;8.696;2024-03-29T05:41:03;96812.69;;;9.33;62.43
22743;BME280;11538;48.884;8.696;2024-03-29T05:43:29;96815.53;;;9.37;61.69
22743;BME280;11538;48.884;8.696;2024-03-29T05:45:56;96834.56;;;9.41;60.48
22743;BME280;11538;48.884;8.696;2024-03-29T05:48:23;96825.44;;;9.45;61.18
22743;BME280;11538;48.884;8.696;2024-03-29T05:50:49;96814.38;;;9.50;62.33
22743;BME280;11538;48.884;8.696;2024-03-29T05:53:15;96824.50;;;9.54;60.73
22743;BME280;11538;48.884;8.696;2024-03-29T05:55:41;96837.38;;;9.57;60.10
22743;BME280;11538;48.884;8.696;2024-03-29T05:58:07;96827.31;;;9.57;59.52
22743;BME280;11538;48.884;8.696;2024-03-29T06:00:33;96837.81;;;9.59;59.87
22743;BME280;11538;48.884;8.696;2024-03-29T06:03:03;96844.34;;;9.58;59.35
22743;BME280;11538;48.884;8.696;2024-03-29T06:05:29;96826.63;;;9.60;59.27
22743;BME280;11538;48.884;8.696;2024-03-29T06:07:55;96854.25;;;9.66;59.63
22743;BME280;11538;48.884;8.696;2024-03-29T06:10:21;96849.84;;;9.74;59.57
22743;BME280;11538;48.884;8.696;2024-03-29T06:12:47;96855.47;;;9.81;58.39
22743;BME280;11538;48.884;8.696;2024-03-29T06:15:13;96862.56;;;9.86;59.19
22743;BME280;11538;48.884;8.696;2024-03-29T06:17:58;96860.41;;;9.91;57.55
22743;BME280;11538;48.884;8.696;2024-03-29T06:20:24;96856.69;;;9.96;58.41
22743;BME280;11538;48.884;8.696;2024-03-29T06:22:50;96872.69;;;10.01;57.18
22743;BME280;11538;48.884;8.696;2024-03-29T06:25:16;96871.66;;;10.06;57.43
22743;BME280;11538;48.884;8.696;2024-03-29T06:27:42;96870.63;;;10.10;58.14
22743;BME280;11538;48.884;8.696;2024-03-29T06:30:15;96871.88;;;10.13;57.58
22743;BME280;11538;48.884;8.696;2024-03-29T06:32:42;96877.03;;;10.18;57.08
22743;BME280;11538;48.884;8.696;2024-03-29T06:35:08;96883.00;;;10.24;57.30
22743;BME280;11538;48.884;8.696;2024-03-29T06:37:34;96874.63;;;10.29;55.80
22743;BME280;11538;48.884;8.696;2024-03-29T06:40:00;96864.78;;;10.37;55.52
22743;BME280;11538;48.884;8.696;2024-03-29T06:42:27;96861.84;;;10.42;56.45
22743;BME280;11538;48.884;8.696;2024-03-29T06:44:53;96864.75;;;10.49;56.11
22743;BME280;11538;48.884;8.696;2024-03-29T06:47:20;96868.88;;;10.59;57.48
22743;BME280;11538;48.884;8.696;2024-03-29T06:49:46;96861.28;;;10.65;55.95
22743;BME280;11538;48.884;8.696;2024-03-29T06:52:12;96851.31;;;10.69;56.33
22743;BME280;11538;48.884;8.696;2024-03-29T06:54:38;96849.47;;;10.73;57.49
22743;BME280;11538;48.884;8.696;2024-03-29T06:57:04;96852.13;;;10.70;55.93
22743;BME280;11538;48.884;8.696;2024-03-29T06:59:30;96837.00;;;10.68;56.19
22743;BME280;11538;48.884;8.696;2024-03-29T07:01:56;96834.63;;;10.67;56.67
22743;BME280;11538;48.884;8.696;2024-03-29T07:04:24;96838.81;;;10.64;55.99
22743;BME280;11538;48.884;8.696;2024-03-29T07:06:51;96842.22;;;10.61;57.26
22743;BME280;11538;48.884;8.696;2024-03-29T07:09:21;96848.78;;;10.60;55.93
22743;BME280;11538;48.884;8.696;2024-03-29T07:11:48;96843.38;;;10.60;57.03
22743;BME280;11538;48.884;8.696;2024-03-29T07:14:18;96847.19;;;10.59;56.42
22743;BME280;11538;48.884;8.696;2024-03-29T07:16:45;96857.94;;;10.56;56.13
22743;BME280;11538;48.884;8.696;2024-03-29T07:19:12;96855.56;;;10.54;57.42
22743;BME280;11538;48.884;8.696;2024-03-29T07:21:45;96858.63;;;10.52;56.83
22743;BME280;11538;48.884;8.696;2024-03-29T07:24:12;96871.38;;;10.52;57.80
22743;BME280;11538;48.884;8.696;2024-03-29T07:26:38;96867.47;;;10.49;57.50
22743;BME280;11538;48.884;8.696;2024-03-29T07:29:05;96874.78;;;10.49;59.32
22743;BME280;11538;48.884;8.696;2024-03-29T07:31:35;96889.03;;;10.46;60.73
22743;BME280;11538;48.884;8.696;2024-03-29T07:34:01;96889.72;;;10.43;63.57
22743;BME280;11538;48.884;8.696;2024-03-29T07:36:27;96894.69;;;10.41;66.82
22743;BME280;11538;48.884;8.696;2024-03-29T07:38:59;96899.13;;;10.33;71.06
22743;BME280;11538;48.884;8.696;2024-03-29T07:41:25;96898.81;;;10.22;72.42
22743;BME280;11538;48.884;8.696;2024-03-29T07:43:56;96885.41;;;10.13;74.48
22743;BME280;11538;48.884;8.696;2024-03-29T07:46:29;96896.38;;;10.04;76.86
22743;BME280;11538;48.884;8.696;2024-03-29T07:48:56;96897.53;;;9.91;78.10
22743;BME280;11538;48.884;8.696;2024-03-29T07:51:22;96909.06;;;9.75;83.23
22743;BME280;11538;48.884;8.696;2024-03-29T07:53:48;96901.41;;;9.53;87.05
22743;BME280;11538;48.884;8.696;2024-03-29T07:56:14;96907.75;;;9.44;89.49
22743;BME280;11538;48.884;8.696;2024-03-29T07:58:40;96920.59;;;9.47;94.93
22743;BME280;11538;48.884;8.696;2024-03-29T08:01:05;96920.00;;;9.42;96.92
22743;BME280;11538;48.884;8.696;2024-03-29T08:03:32;96929.72;;;9.43;100.00
22743;BME280;11538;48.884;8.696;2024-03-29T08:06:02;96928.47;;;9.28;100.00
22743;BME280;11538;48.884;8.696;2024-03-29T08:08:32;96934.06;;;9.22;100.00
22743;BME280;11538;48.884;8.696;2024-03-29T08:10:59;96938.94;;;9.17;100.00
22743;BME280;11538;48.884;8.696;2024-03-29T08:13:26;96943.88;;;9.15;100.00
22743;BME280;11538;48.884;8.696;2024-03-29T08:16:00;96942.84;;;9.07;100.00
22743;BME280;11538;48.884;8.696;2024-03-29T08:18:27;96959.19;;;8.98;100.00
22743;BME280;11538;48.884;8.696;2024-03-29T08:20:53;96975.25;;;8.95;100.00
22743;BME280;11538;48.884;8.696;2024-03-29T08:23:21;96986.75;;;8.91;100.00
22743;BME280;11538;48.884;8.696;2024-03-29T08:25:47;96999.81;;;8.89;100.00
22743;BME280;11538;48.884;8.696;2024-03-29T08:28:14;97009.59;;;8.82;100.00
22743;BME280;11538;48.884;8.696;2024-03-29T08:30:40;96993.38;;;8.82;100.00
22743;BME280;11538;48.884;8.696;2024-03-29T08:33:06;97001.13;;;8.83;100.00
22743;BME280;11538;48.884;8.696;2024-03-29T08:35:33;97000.34;;;8.83;100.00
22743;BME280;11538;48.884;8.696;2024-03-29T08:38:00;97020.50;;;8.85;100.00
22743;BME280;11538;48.884;8.696;2024-03-29T08:40:28;97019.66;;;8.93;100.00
22743;BME280;11538;48.884;8.696;2024-03-29T08:42:55;97014.03;;;8.99;100.00
22743;BME280;11538;48.884;8.696;2024-03-29T08:45:24;97020.50;;;9.06;100.00
22743;BME280;11538;48.884;8.696;2024-03-29T08:47:49;97018.56;;;9.07;100.00
22743;BME280;11538;48.884;8.696;2024-03-29T08:50:15;97027.47;;;9.07;100.00
22743;BME280;11538;48.884;8.696;2024-03-29T08:52:41;97013.84;;;9.16;100.00
22743;BME280;11538;48.884;8.696;2024-03-29T08:55:07;97027.44;;;9.29;100.00
22743;BME280;11538;48.884;8.696;2024-03-29T08:57:34;97023.84;;;9.37;100.00
22743;BME280;11538;48.884;8.696;2024-03-29T09:00:00;97025.75;;;9.36;100.00
22743;BME280;11538;48.884;8.696;2024-03-29T09:02:26;97029.72;;;9.39;100.00
22743;BME280;11538;48.884;8.696;2024-03-29T09:04:53;97030.63;;;9.43;100.00
22743;BME280;11538;48.884;8.696;2024-03-29T09:07:19;97030.19;;;9.54;100.00
22743;BME280;11538;48.884;8.696;2024-03-29T09:09:49;97032.47;;;9.64;100.00
22743;BME280;11538;48.884;8.696;2024-03-29T09:12:15;97034.97;;;9.82;100.00
22743;BME280;11538;48.884;8.696;2024-03-29T09:14:45;97033.97;;;9.99;100.00
22743;BME280;11538;48.884;8.696;2024-03-29T09:17:11;97038.56;;;10.10;100.00
22743;BME280;11538;48.884;8.696;2024-03-29T09:19:37;97035.31;;;10.17;100.00
22743;BME280;11538;48.884;8.696;2024-03-29T09:22:03;97034.50;;;10.17;100.00
22743;BME280;11538;48.884;8.696;2024-03-29T09:24:29;97036.53;;;10.20;100.00
22743;BME280;11538;48.884;8.696;2024-03-29T09:26:55;97038.22;;;10.24;100.00
22743;BME280;11538;48.884;8.696;2024-03-29T09:29:20;97035.63;;;10.28;100.00
22743;BME280;11538;48.884;8.696;2024-03-29T09:31:46;97032.69;;;10.33;100.00
22743;BME280;11538;48.884;8.696;2024-03-29T09:34:12;97030.84;;;10.37;100.00
22743;BME280;11538;48.884;8.696;2024-03-29T09:36:38;97021.31;;;10.40;100.00
22743;BME280;11538;48.884;8.696;2024-03-29T09:39:04;97019.38;;;10.41;100.00
22743;BME280;11538;48.884;8.696;2024-03-29T09:41:31;97025.34;;;10.46;100.00
22743;BME280;11538;48.884;8.696;2024-03-29T09:44:02;97023.53;;;10.50;100.00
22743;BME280;11538;48.884;8.696;2024-03-29T09:46:28;97025.88;;;10.52;100.00
22743;BME280;11538;48.884;8.696;2024-03-29T09:48:55;97015.25;;;10.59;100.00
22743;BME280;11538;48.884;8.696;2024-03-29T09:51:22;97008.94;;;10.67;100.00
22743;BME280;11538;48.884;8.696;2024-03-29T09:53:51;97015.69;;;10.74;100.00
22743;BME280;11538;48.884;8.696;2024-03-29T09:56:17;97011.84;;;10.75;100.00
22743;BME280;11538;48.884;8.696;2024-03-29T09:58:43;96997.94;;;10.76;100.00
22743;BME280;11538;48.884;8.696;2024-03-29T10:01:09;96992.94;;;10.78;100.00
22743;BME280;11538;48.884;8.696;2024-03-29T10:03:39;96985.25;;;10.80;100.00
22743;BME280;11538;48.884;8.696;2024-03-29T10:06:05;96980.19;;;10.79;100.00
22743;BME280;11538;48.884;8.696;2024-03-29T10:08:35;96968.09;;;10.76;100.00
22743;BME280;11538;48.884;8.696;2024-03-29T10:11:02;96967.06;;;10.81;100.00
22743;BME280;11538;48.884;8.696;2024-03-29T10:13:28;96964.81;;;10.83;100.00
22743;BME280;11538;48.884;8.696;2024-03-29T10:15:56;96981.59;;;10.89;100.00
22743;BME280;11538;48.884;8.696;2024-03-29T10:18:26;96981.97;;;10.87;100.00
22743;BME280;11538;48.884;8.696;2024-03-29T10:23:25;96985.13;;;10.89;100.00
22743;BME280;11538;48.884;8.696;2024-03-29T10:25:51;96973.13;;;10.90;100.00
22743;BME280;11538;48.884;8.696;2024-03-29T10:28:18;96956.88;;;10.90;100.00
22743;BME280;11538;48.884;8.696;2024-03-29T10:30:44;96955.81;;;10.95;100.00
22743;BME280;11538;48.884;8.696;2024-03-29T10:33:14;96970.63;;;10.97;100.00
22743;BME280;11538;48.884;8.696;2024-03-29T10:35:43;96969.22;;;11.04;100.00
22743;BME280;11538;48.884;8.696;2024-03-29T10:38:10;96966.63;;;11.23;100.00
22743;BME280;11538;48.884;8.696;2024-03-29T10:40:38;96965.06;;;11.54;100.00
22743;BME280;11538;48.884;8.696;2024-03-29T10:43:10;96969.25;;;11.84;100.00
22743;BME280;11538;48.884;8.696;2024-03-29T10:45:39;96952.75;;;12.09;100.00
22743;BME280;11538;48.884;8.696;2024-03-29T10:48:06;96957.13;;;12.13;100.00
22743;BME280;11538;48.884;8.696;2024-03-29T10:50:36;96955.34;;;12.21;100.00
22743;BME280;11538;48.884;8.696;2024-03-29T10:53:03;96947.78;;;12.31;100.00
22743;BME280;11538;48.884;8.696;2024-03-29T10:55:29;96941.00;;;12.40;100.00
22743;BME280;11538;48.884;8.696;2024-03-29T10:57:57;96931.41;;;12.47;100.00
22743;BME280;11538;48.884;8.696;2024-03-29T11:00:24;96935.81;;;12.75;100.00
22743;BME280;11538;48.884;8.696;2024-03-29T11:02:57;96937.28;;;13.11;100.00
22743;BME280;11538;48.884;8.696;2024-03-29T11:05:23;96932.00;;;13.42;100.00
22743;BME280;11538;48.884;8.696;2024-03-29T11:07:52;96926.81;;;13.60;100.00
22743;BME280;11538;48.884;8.696;2024-03-29T11:10:25;96929.75;;;13.74;100.00
22743;BME280;11538;48.884;8.696;2024-03-29T11:13:02;96926.78;;;14.10;100.00
22743;BME280;11538;48.884;8.696;2024-03-29T11:15:33;96928.28;;;14.38;100.00
22743;BME280;11538;48.884;8.696;2024-03-29T11:18:00;96930.69;;;14.43;100.00
22743;BME280;11538;48.884;8.696;2024-03-29T11:20:27;96930.25;;;14.38;100.00
22743;BME280;11538;48.884;8.696;2024-03-29T11:23:13;96931.91;;;14.15;100.00
22743;BME280;11538;48.884;8.696;2024-03-29T11:25:41;96927.41;;;14.00;100.00
22743;BME280;11538;48.884;8.696;2024-03-29T11:28:08;96927.09;;;14.05;100.00
22743;BME280;11538;48.884;8.696;2024-03-29T11:30:42;96933.25;;;13.98;100.00
22743;BME280;11538;48.884;8.696;2024-03-29T11:33:25;96939.19;;;13.81;100.00
22743;BME280;11538;48.884;8.696;2024-03-29T11:35:51;96942.19;;;13.72;100.00
22743;BME280;11538;48.884;8.696;2024-03-29T11:38:18;96945.53;;;13.62;100.00
22743;BME280;11538;48.884;8.696;2024-03-29T11:40:54;96948.75;;;13.44;100.00
22743;BME280;11538;48.884;8.696;2024-03-29T11:43:20;96951.69;;;13.35;100.00
22743;BME280;11538;48.884;8.696;2024-03-29T11:45:49;96954.84;;;13.37;100.00
22743;BME280;11538;48.884;8.696;2024-03-29T11:48:20;96965.09;;;13.44;100.00
22743;BME280;11538;48.884;8.696;2024-03-29T11:50:48;96963.56;;;13.47;100.00
22743;BME280;11538;48.884;8.696;2024-03-29T11:53:14;96968.25;;;13.46;100.00
22743;BME280;11538;48.884;8.696;2024-03-29T11:55:40;96966.72;;;13.49;100.00
22743;BME280;11538;48.884;8.696;2024-03-29T11:58:08;96971.50;;;13.55;100.00
22743;BME280;11538;48.884;8.696;2024-03-29T12:00:35;96969.31;;;13.65;100.00
22743;BME280;11538;48.884;8.696;2024-03-29T12:03:07;96971.63;;;13.63;100.00
22743;BME280;11538;48.884;8.696;2024-03-29T12:05:34;96973.97;;;13.64;100.00
22743;BME280;11538;48.884;8.696;2024-03-29T12:08:00;96974.66;;;13.57;100.00
22743;BME280;11538;48.884;8.696;2024-03-29T12:10:27;96975.38;;;13.54;100.00
22743;BME280;11538;48.884;8.696;2024-03-29T12:12:57;96979.25;;;13.53;100.00
22743;BME280;11538;48.884;8.696;2024-03-29T12:15:24;96993.19;;;13.48;100.00
22743;BME280;11538;48.884;8.696;2024-03-29T12:17:55;96997.41;;;13.45;100.00
22743;BME280;11538;48.884;8.696;2024-03-29T12:20:21;96997.78;;;13.44;100.00
22743;BME280;11538;48.884;8.696;2024-03-29T12:22:47;96998.41;;;13.37;100.00
22743;BME280;11538;48.884;8.696;2024-03-29T12:25:13;96995.63;;;13.34;100.00
22743;BME280;11538;48.884;8.696;2024-03-29T12:27:42;96997.06;;;13.27;100.00
22743;BME280;11538;48.884;8.696;2024-03-29T12:30:09;97007.09;;;13.23;100.00
22743;BME280;11538;48.884;8.696;2024-03-29T12:32:35;96977.00;;;13.16;100.00
22743;BME280;11538;48.884;8.696;2024-03-29T12:35:08;97008.41;;;13.10;100.00
22743;BME280;11538;48.884;8.696;2024-03-29T12:37:35;96986.88;;;13.01;100.00
22743;BME280;11538;48.884;8.696;2024-03-29T12:40:01;96990.16;;;12.91;100.00
22743;BME280;11538;48.884;8.696;2024-03-29T12:42:30;97004.13;;;12.89;100.00
22743;BME280;11538;48.884;8.696;2024-03-29T12:44:56;96982.63;;;12.84;100.00
22743;BME280;11538;48.884;8.696;2024-03-29T12:47:30;96989.22;;;12.83;100.00
22743;BME280;11538;48.884;8.696;2024-03-29T12:49:58;96974.44;;;12.80;100.00
22743;BME280;11538;48.884;8.696;2024-03-29T12:52:24;96978.22;;;12.76;100.00
22743;BME280;11538;48.884;8.696;2024-03-29T12:54:50;96975.44;;;12.72;100.00
22743;BME280;11538;48.884;8.696;2024-03-29T12:57:16;96959.88;;;12.72;100.00
22743;BME280;11538;48.884;8.696;2024-03-29T12:59:43;96967.75;;;12.78;100.00
22743;BME280;11538;48.884;8.696;2024-03-29T13:02:10;96968.19;;;12.80;100.00
22743;BME280;11538;48.884;8.696;2024-03-29T13:04:36;96972.41;;;12.77;100.00